createdAt,value
2023-04-17T00:01:05.261Z,70.05
2023-04-17T00:03:32.122Z,70.52
2023-04-17T00:05:58.746Z,70.48
2023-04-17T00:08:25.189Z,70.92
2023-04-17T00:11:04.218Z,72.35
2023-04-17T00:13:33.940Z,71.53
2023-04-17T00:16:00.408Z,71.23
2023-04-17T00:18:26.904Z,71.03
2023-04-17T00:20:53.665Z,71.30
2023-04-17T00:23:20.252Z,72.92
2023-04-17T00:25:46.665Z,71.80
2023-04-17T00:28:13.111Z,71.52
2023-04-17T00:30:39.520Z,71.55
2023-04-17T00:33:05.944Z,72.04
2023-04-17T00:35:32.426Z,71.33
2023-04-17T00:37:58.820Z,70.89
2023-04-17T00:40:25.320Z,72.32
2023-04-17T00:42:56.019Z,71.82
2023-04-17T00:45:22.484Z,72.46
2023-04-17T00:47:49.645Z,71.15
2023-04-17T00:50:16.424Z,71.53
2023-04-17T00:52:44.000Z,71.38
2023-04-17T00:55:11.222Z,72.54
2023-04-17T00:57:37.682Z,72.01
2023-04-17T01:00:05.570Z,72.57
2023-04-17T01:02:32.376Z,72.50
2023-04-17T01:04:58.893Z,71.49
2023-04-17T01:07:25.492Z,72.91
2023-04-17T01:09:52.032Z,73.13
2023-04-17T01:12:23.978Z,72.77
2023-04-17T01:14:51.544Z,73.49
2023-04-17T01:17:21.732Z,73.46
2023-04-17T01:19:49.433Z,73.87
2023-04-17T01:22:16.594Z,73.14
2023-04-17T01:24:43.205Z,72.55
2023-04-17T01:27:13.567Z,73.21
2023-04-17T01:29:40.801Z,74.78
2023-04-17T01:32:07.509Z,74.34
2023-04-17T01:34:36.792Z,73.62
2023-04-17T01:37:03.802Z,73.66
2023-04-17T01:39:30.315Z,72.51
2023-04-17T01:41:56.808Z,73.38
2023-04-17T01:44:23.230Z,74.38
2023-04-17T01:46:49.669Z,74.03
2023-04-17T01:49:16.541Z,74.32
2023-04-17T01:51:42.986Z,74.97
2023-04-17T01:54:09.421Z,74.51
2023-04-17T01:56:35.845Z,75.00
2023-04-17T01:59:02.253Z,74.00
2023-04-17T02:01:28.671Z,73.82
2023-04-17T02:03:55.262Z,75.40
2023-04-17T02:06:21.831Z,75.11
2023-04-17T02:08:48.235Z,74.93
2023-04-17T02:11:15.389Z,74.03
2023-04-17T02:13:41.858Z,74.82
2023-04-17T02:16:09.495Z,74.20
2023-04-17T02:18:36.754Z,74.71
2023-04-17T02:21:03.286Z,74.79
2023-04-17T02:23:29.747Z,74.22
2023-04-17T02:25:56.959Z,74.44
2023-04-17T02:28:23.407Z,73.98
2023-04-17T02:30:49.832Z,74.52
2023-04-17T02:33:16.286Z,74.37
2023-04-17T02:35:42.760Z,73.38
2023-04-17T02:38:09.201Z,72.26
2023-04-17T02:40:35.807Z,71.23
2023-04-17T02:43:02.284Z,72.58
2023-04-17T02:45:28.897Z,73.18
2023-04-17T02:47:55.651Z,71.44
2023-04-17T02:50:22.341Z,72.57
2023-04-17T02:52:48.755Z,71.87
2023-04-17T02:55:15.305Z,72.77
2023-04-17T02:57:41.708Z,72.38
2023-04-17T03:00:08.487Z,72.70
2023-04-17T03:02:35.084Z,73.43
2023-04-17T03:05:02.148Z,71.73
2023-04-17T03:07:28.586Z,71.86
2023-04-17T03:09:57.479Z,71.82
2023-04-17T03:12:23.915Z,72.41
2023-04-17T03:14:51.014Z,73.07
2023-04-17T03:17:18.266Z,72.66
2023-04-17T03:19:44.694Z,72.60
2023-04-17T03:22:13.264Z,74.10
2023-04-17T03:24:41.235Z,73.51
2023-04-17T03:27:07.737Z,74.33
2023-04-17T03:29:34.241Z,74.11
2023-04-17T03:32:00.924Z,75.31
2023-04-17T03:34:28.995Z,74.14
2023-04-17T03:36:55.799Z,74.83
2023-04-17T03:39:22.300Z,75.32
2023-04-17T03:41:48.794Z,75.21
2023-04-17T03:44:15.400Z,74.63
2023-04-17T03:46:41.858Z,75.54
2023-04-17T03:49:08.252Z,75.35
2023-04-17T03:51:34.670Z,75.34
2023-04-17T03:54:01.141Z,75.43
2023-04-17T03:56:27.668Z,75.27
2023-04-17T03:58:54.095Z,75.31
2023-04-17T04:01:22.237Z,76.18
2023-04-17T04:03:48.945Z,75.90
2023-04-17T04:06:20.149Z,75.88
2023-04-17T04:08:46.608Z,75.85
2023-04-17T04:11:13.811Z,75.62
2023-04-17T04:13:40.550Z,75.74
2023-04-17T04:16:07.461Z,75.31
2023-04-17T04:18:34.642Z,75.72
2023-04-17T04:21:01.133Z,75.88
2023-04-17T04:23:28.026Z,76.19
2023-04-17T04:25:56.843Z,76.65
2023-04-17T04:28:23.969Z,76.12
2023-04-17T04:30:51.459Z,76.36
2023-04-17T04:33:20.223Z,76.16
2023-04-17T04:35:51.187Z,76.21
2023-04-17T04:38:17.813Z,75.36
2023-04-17T04:40:52.108Z,75.82
2023-04-17T04:43:20.815Z,75.94
2023-04-17T04:45:48.733Z,75.52
2023-04-17T04:48:15.336Z,75.51
2023-04-17T04:50:41.821Z,75.77
2023-04-17T04:53:08.224Z,75.28
2023-04-17T04:55:34.736Z,74.96
2023-04-17T04:58:01.174Z,75.52
2023-04-17T05:00:27.597Z,75.17
2023-04-17T05:02:54.292Z,75.77
2023-04-17T05:05:21.026Z,75.33
2023-04-17T05:07:47.420Z,74.69
2023-04-17T05:10:13.878Z,75.58
2023-04-17T05:12:41.104Z,74.86
2023-04-17T05:15:08.004Z,74.07
2023-04-17T05:17:34.447Z,74.50
2023-04-17T05:20:00.898Z,74.68
2023-04-17T05:22:27.613Z,73.75
2023-04-17T05:24:54.120Z,73.41
2023-04-17T05:27:20.618Z,73.32
2023-04-17T05:29:47.013Z,74.38
2023-04-17T05:32:13.471Z,74.69
2023-04-17T05:34:39.962Z,73.22
2023-04-17T05:37:07.021Z,74.00
2023-04-17T05:39:34.315Z,74.70
2023-04-17T05:42:01.456Z,74.11
2023-04-17T05:44:27.932Z,74.56
2023-04-17T05:46:57.123Z,74.70
2023-04-17T05:49:23.587Z,73.12
2023-04-17T05:51:50.029Z,73.89
2023-04-17T05:54:16.498Z,73.94
2023-04-17T05:56:43.020Z,73.63
2023-04-17T05:59:09.656Z,73.35
2023-04-17T06:01:36.377Z,72.21
2023-04-17T06:04:03.212Z,71.80
2023-04-17T06:06:29.887Z,71.96
2023-04-17T06:08:56.443Z,70.74
2023-04-17T06:11:24.132Z,70.56
2023-04-17T06:13:51.875Z,69.40
2023-04-17T06:16:18.635Z,70.14
2023-04-17T06:18:45.171Z,70.68
2023-04-17T06:21:11.674Z,70.66
2023-04-17T06:23:38.073Z,69.79
2023-04-17T06:26:04.571Z,70.73
2023-04-17T06:28:32.196Z,70.96
2023-04-17T06:30:58.641Z,68.99
2023-04-17T06:33:26.773Z,68.76
2023-04-17T06:35:53.468Z,69.12
2023-04-17T06:38:19.915Z,67.83
2023-04-17T06:40:46.641Z,68.17
2023-04-17T06:43:15.403Z,66.67
2023-04-17T06:45:44.609Z,67.05
2023-04-17T06:48:11.442Z,66.13
2023-04-17T06:50:37.917Z,64.75
2023-04-17T06:53:04.548Z,63.26
2023-04-17T06:55:30.966Z,62.70
2023-04-17T06:57:57.405Z,63.09
2023-04-17T07:00:24.036Z,62.56
2023-04-17T07:02:51.380Z,62.37
2023-04-17T07:05:18.165Z,61.99
2023-04-17T07:07:44.653Z,60.92
2023-04-17T07:10:11.090Z,61.52
2023-04-17T07:12:37.722Z,61.11
2023-04-17T07:15:04.480Z,61.10
2023-04-17T07:17:30.929Z,59.41
2023-04-17T07:19:57.358Z,60.75
2023-04-17T07:22:25.244Z,60.66
2023-04-17T07:24:53.188Z,59.18
2023-04-17T07:27:19.819Z,60.85
2023-04-17T07:29:52.778Z,59.97
2023-04-17T07:32:19.331Z,57.79
2023-04-17T07:34:45.952Z,58.31
2023-04-17T07:37:12.454Z,57.32
2023-04-17T07:39:38.992Z,57.47
2023-04-17T07:42:08.664Z,55.42
2023-04-17T07:44:35.425Z,56.89
2023-04-17T07:47:01.979Z,53.94
2023-04-17T07:49:28.604Z,53.32
2023-04-17T07:51:55.214Z,53.16
2023-04-17T07:54:21.698Z,53.86
2023-04-17T07:56:49.259Z,52.92
2023-04-17T07:59:18.906Z,53.85
2023-04-17T08:01:45.340Z,53.26
2023-04-17T08:04:12.029Z,53.90
2023-04-17T08:06:39.115Z,52.51
2023-04-17T08:09:05.597Z,52.57
2023-04-17T08:11:35.675Z,53.62
2023-04-17T08:14:06.536Z,52.69
2023-04-17T08:16:33.451Z,51.68
2023-04-17T08:18:59.984Z,52.39
2023-04-17T08:21:26.727Z,51.33
2023-04-17T08:23:53.121Z,51.95
2023-04-17T08:26:20.500Z,51.89
2023-04-17T08:28:47.040Z,51.82
2023-04-17T08:31:13.890Z,51.79
2023-04-17T08:33:40.581Z,53.75
2023-04-17T08:36:09.658Z,52.44
2023-04-17T08:38:36.492Z,51.23
2023-04-17T08:41:06.052Z,50.59
2023-04-17T08:43:35.722Z,51.05
2023-04-17T08:46:03.459Z,50.14
2023-04-17T08:48:30.568Z,53.72
2023-04-17T08:50:57.090Z,52.06
2023-04-17T08:53:23.523Z,51.93
2023-04-17T08:55:50.177Z,52.75
2023-04-17T08:58:17.770Z,52.11
2023-04-17T09:00:45.574Z,52.24
2023-04-17T09:03:13.606Z,52.20
2023-04-17T09:05:43.317Z,52.96
2023-04-17T09:08:20.747Z,49.51
2023-04-17T09:10:53.080Z,49.34
2023-04-17T09:13:24.792Z,50.28
2023-04-17T09:16:04.711Z,50.98
2023-04-17T09:18:32.124Z,49.77
2023-04-17T09:21:03.023Z,48.83
2023-04-17T09:23:31.685Z,50.31
2023-04-17T09:26:09.073Z,51.13
2023-04-17T09:28:36.044Z,50.41
2023-04-17T09:31:23.464Z,50.23
2023-04-17T09:34:01.918Z,51.23
2023-04-17T09:36:33.279Z,50.28
2023-04-17T09:39:04.060Z,48.26
2023-04-17T09:41:32.756Z,48.01
2023-04-17T09:44:07.176Z,48.30
2023-04-17T09:46:45.562Z,48.22
2023-04-17T09:49:54.168Z,47.77
2023-04-17T09:52:25.581Z,49.17
2023-04-17T09:54:53.749Z,47.90
2023-04-17T09:57:21.243Z,48.68
2023-04-17T09:59:49.070Z,47.59
2023-04-17T10:02:18.533Z,48.66
2023-04-17T10:04:52.561Z,47.38
2023-04-17T10:07:19.001Z,48.24
2023-04-17T10:09:45.877Z,47.64
2023-04-17T10:12:15.363Z,47.17
2023-04-17T10:14:46.542Z,48.30
2023-04-17T10:17:34.012Z,48.09
2023-04-17T10:20:18.287Z,47.84
2023-04-17T10:22:45.059Z,47.30
2023-04-17T10:25:11.582Z,47.82
2023-04-17T10:27:38.805Z,47.08
2023-04-17T10:30:09.455Z,49.71
2023-04-17T10:32:36.914Z,49.22
2023-04-17T10:35:23.759Z,50.49
2023-04-17T10:37:50.196Z,50.96
2023-04-17T10:40:24.715Z,50.97
2023-04-17T10:43:17.935Z,52.08
2023-04-17T10:46:03.637Z,52.36
2023-04-17T10:48:40.772Z,51.97
2023-04-17T10:51:26.871Z,52.18
2023-04-17T10:53:56.033Z,52.88
2023-04-17T10:56:35.355Z,53.33
2023-04-17T10:59:12.879Z,52.33
2023-04-17T11:02:09.199Z,52.50
2023-04-17T11:04:36.032Z,50.29
2023-04-17T11:07:02.662Z,51.82
2023-04-17T11:09:29.611Z,52.38
2023-04-17T11:11:59.649Z,53.26
2023-04-17T11:14:26.627Z,54.86
2023-04-17T11:16:53.221Z,54.95
2023-04-17T11:19:22.985Z,55.76
2023-04-17T11:21:52.302Z,55.62
2023-04-17T11:24:31.962Z,56.61
2023-04-17T11:27:00.169Z,57.66
2023-04-17T11:29:27.570Z,57.62
2023-04-17T11:31:56.947Z,58.63
2023-04-17T11:34:25.840Z,58.28
2023-04-17T11:37:01.663Z,58.86
2023-04-17T11:39:31.008Z,58.45
2023-04-17T11:41:57.863Z,59.07
2023-04-17T11:44:25.456Z,58.33
2023-04-17T11:46:53.380Z,58.17
2023-04-17T11:49:27.412Z,58.95
2023-04-17T11:51:59.327Z,59.19
2023-04-17T11:54:26.557Z,60.48
2023-04-17T11:57:05.291Z,60.40
2023-04-17T11:59:37.858Z,59.60
2023-04-17T12:02:08.663Z,58.98
2023-04-17T12:04:37.119Z,59.37
2023-04-17T12:07:05.189Z,59.64
2023-04-17T12:09:32.922Z,59.70
2023-04-17T12:12:07.377Z,59.41
2023-04-17T12:14:34.198Z,58.90
2023-04-17T12:17:01.113Z,59.12
2023-04-17T12:19:29.270Z,59.68
2023-04-17T12:21:56.464Z,61.14
2023-04-17T12:24:24.743Z,60.83
2023-04-17T12:26:52.328Z,60.72
2023-04-17T12:29:26.591Z,61.50
2023-04-17T12:31:59.330Z,62.73
2023-04-17T12:34:27.239Z,61.67
2023-04-17T12:36:54.304Z,62.47
2023-04-17T12:39:20.792Z,62.31
2023-04-17T12:41:47.286Z,62.54
2023-04-17T12:44:14.241Z,63.00
2023-04-17T12:46:41.149Z,62.54
2023-04-17T12:49:07.640Z,62.69
2023-04-17T12:51:37.582Z,61.51
2023-04-17T12:54:04.280Z,61.79
2023-04-17T12:56:30.819Z,61.30
2023-04-17T12:58:57.294Z,63.70
2023-04-17T13:01:25.314Z,62.48
2023-04-17T13:03:52.031Z,62.43
2023-04-17T13:06:18.963Z,63.02
2023-04-17T13:08:45.429Z,63.59
2023-04-17T13:11:11.853Z,61.77
2023-04-17T13:13:38.272Z,61.80
2023-04-17T13:16:05.324Z,62.14
2023-04-17T13:18:31.741Z,62.44
2023-04-17T13:20:58.251Z,62.34
2023-04-17T13:23:24.778Z,61.54
2023-04-17T13:25:51.217Z,63.31
2023-04-17T13:28:17.663Z,62.14
2023-04-17T13:30:44.135Z,61.02
2023-04-17T13:33:10.661Z,60.87
2023-04-17T13:35:37.095Z,60.63
2023-04-17T13:38:04.230Z,62.32
2023-04-17T13:40:31.171Z,62.13
2023-04-17T13:42:58.415Z,61.31
2023-04-17T13:45:25.035Z,63.01
2023-04-17T13:47:51.862Z,62.13
2023-04-17T13:50:18.388Z,62.39
2023-04-17T13:52:44.870Z,62.85
2023-04-17T13:55:14.378Z,62.65
2023-04-17T13:57:40.868Z,61.64
2023-04-17T14:00:07.943Z,61.27
2023-04-17T14:02:34.633Z,61.34
2023-04-17T14:05:01.239Z,61.97
2023-04-17T14:07:27.812Z,61.87
2023-04-17T14:09:54.268Z,63.04
2023-04-17T14:12:21.684Z,63.89
2023-04-17T14:14:48.287Z,63.16
2023-04-17T14:17:14.910Z,62.92
2023-04-17T14:19:41.564Z,62.51
2023-04-17T14:22:08.078Z,63.42
2023-04-17T14:24:34.572Z,63.59
2023-04-17T14:27:01.835Z,63.13
2023-04-17T14:29:28.657Z,63.69
2023-04-17T14:31:55.333Z,62.56
2023-04-17T14:34:21.929Z,62.47
2023-04-17T14:36:48.789Z,62.83
2023-04-17T14:39:15.572Z,63.21
2023-04-17T14:41:42.283Z,64.37
2023-04-17T14:44:08.907Z,63.86
2023-04-17T14:46:35.738Z,63.58
2023-04-17T14:49:02.674Z,62.25
2023-04-17T14:51:30.713Z,64.20
2023-04-17T14:53:57.493Z,63.60
2023-04-17T14:56:24.318Z,63.67
2023-04-17T14:58:50.910Z,64.53
2023-04-17T15:01:17.434Z,63.19
2023-04-17T15:03:46.839Z,64.55
2023-04-17T15:06:15.186Z,65.71
2023-04-17T15:08:41.891Z,65.32
2023-04-17T15:11:08.826Z,66.28
2023-04-17T15:13:35.925Z,65.09
2023-04-17T15:16:02.621Z,66.27
2023-04-17T15:18:29.221Z,66.62
2023-04-17T15:20:56.098Z,67.53
2023-04-17T15:23:22.985Z,67.46
2023-04-17T15:25:49.510Z,67.79
2023-04-17T15:28:16.080Z,65.86
2023-04-17T15:30:42.704Z,64.98
2023-04-17T15:33:10.435Z,65.58
2023-04-17T15:35:37.679Z,65.59
2023-04-17T15:38:06.360Z,65.69
2023-04-17T15:40:33.853Z,65.32
2023-04-17T15:43:00.794Z,64.76
2023-04-17T15:45:27.454Z,65.98
2023-04-17T15:47:54.650Z,65.17
2023-04-17T15:50:21.783Z,65.34
2023-04-17T15:52:48.430Z,67.22
2023-04-17T15:55:15.354Z,66.48
2023-04-17T15:57:43.085Z,66.87
2023-04-17T16:00:10.399Z,68.16
2023-04-17T16:02:36.956Z,66.80
2023-04-17T16:05:04.028Z,66.96
2023-04-17T16:07:30.637Z,65.97
2023-04-17T16:09:58.501Z,67.05
2023-04-17T16:12:25.013Z,68.23
2023-04-17T16:14:51.609Z,67.17
2023-04-17T16:17:18.168Z,68.31
2023-04-17T16:19:44.681Z,69.15
2023-04-17T16:22:11.223Z,69.33
2023-04-17T16:24:37.760Z,69.77
2023-04-17T16:27:06.526Z,68.32
2023-04-17T16:29:32.941Z,69.36
2023-04-17T16:31:59.530Z,68.95
2023-04-17T16:34:26.123Z,68.40
2023-04-17T16:36:52.629Z,68.97
2023-04-17T16:39:19.125Z,67.41
2023-04-17T16:41:45.637Z,69.62
2023-04-17T16:44:12.993Z,70.58
2023-04-17T16:47:05.145Z,69.38
2023-04-17T16:49:26.196Z,70.71
2023-04-17T16:51:52.881Z,71.30
2023-04-17T16:54:21.446Z,69.86
2023-04-17T16:56:51.943Z,71.56
2023-04-17T16:59:18.451Z,71.41
2023-04-17T17:01:46.948Z,70.97
2023-04-17T17:04:13.546Z,71.10
2023-04-17T17:06:40.095Z,71.34
2023-04-17T17:09:06.681Z,71.04
2023-04-17T17:11:33.252Z,71.18
2023-04-17T17:13:59.782Z,72.63
2023-04-17T17:16:26.326Z,72.56
2023-04-17T17:18:52.776Z,72.58
2023-04-17T17:21:19.335Z,71.35
2023-04-17T17:23:45.943Z,72.10
2023-04-17T17:26:12.541Z,73.42
2023-04-17T17:28:39.009Z,71.75
2023-04-17T17:31:09.852Z,71.86
2023-04-17T17:33:36.796Z,71.50
2023-04-17T17:36:03.769Z,72.37
2023-04-17T17:38:32.497Z,73.23
2023-04-17T17:40:59.306Z,73.47
2023-04-17T17:43:27.988Z,73.88
2023-04-17T17:45:54.456Z,75.04
2023-04-17T17:48:21.235Z,74.15
2023-04-17T17:50:47.918Z,74.56
2023-04-17T17:53:16.577Z,73.60
2023-04-17T17:55:43.083Z,75.49
2023-04-17T17:58:09.612Z,75.57
2023-04-17T18:00:36.095Z,76.48
2023-04-17T18:03:02.701Z,77.11
2023-04-17T18:05:29.246Z,76.74
2023-04-17T18:07:55.865Z,77.06
2023-04-17T18:10:22.618Z,76.50
2023-04-17T18:12:49.770Z,77.87
2023-04-17T18:15:16.504Z,76.99
2023-04-17T18:17:43.192Z,76.79
2023-04-17T18:20:10.390Z,77.11
2023-04-17T18:22:38.251Z,77.34
2023-04-17T18:25:06.986Z,77.23
2023-04-17T18:27:36.127Z,77.94
2023-04-17T18:30:05.168Z,77.42
2023-04-17T18:32:32.097Z,77.86
2023-04-17T18:34:59.573Z,77.43
2023-04-17T18:37:26.072Z,77.54
2023-04-17T18:39:52.707Z,77.83
2023-04-17T18:42:19.794Z,77.86
2023-04-17T18:44:46.338Z,78.47
2023-04-17T18:47:12.855Z,78.15
2023-04-17T18:49:39.437Z,78.21
2023-04-17T18:52:05.866Z,78.86
2023-04-17T18:54:32.604Z,78.86
2023-04-17T18:56:59.173Z,77.58
2023-04-17T18:59:27.954Z,77.96
2023-04-17T19:01:54.388Z,78.73
2023-04-17T19:04:21.885Z,79.60
2023-04-17T19:06:48.347Z,79.44
2023-04-17T19:09:14.937Z,79.55
2023-04-17T19:11:41.387Z,78.94
2023-04-17T19:14:07.865Z,79.95
2023-04-17T19:16:34.718Z,79.54
2023-04-17T19:19:01.266Z,79.81
2023-04-17T19:21:28.350Z,78.69
2023-04-17T19:23:54.781Z,79.28
2023-04-17T19:26:24.064Z,79.65
2023-04-17T19:28:59.259Z,80.07
2023-04-17T19:31:29.392Z,80.52
2023-04-17T19:33:57.170Z,79.71
2023-04-17T19:36:27.621Z,79.81
2023-04-17T19:38:55.718Z,80.00
2023-04-17T19:41:22.271Z,79.32
2023-04-17T19:43:50.782Z,79.23
2023-04-17T19:46:19.009Z,78.42
2023-04-17T19:48:47.348Z,77.91
2023-04-17T19:51:16.064Z,78.83
2023-04-17T19:53:43.944Z,78.83
2023-04-17T19:56:11.190Z,78.28
2023-04-17T19:58:38.426Z,79.19
2023-04-17T20:01:05.168Z,79.41
2023-04-17T20:03:32.563Z,79.26
2023-04-17T20:06:00.002Z,78.55
2023-04-17T20:08:26.526Z,78.86
2023-04-17T20:10:53.018Z,79.57
2023-04-17T20:13:19.462Z,80.16
2023-04-17T20:15:45.991Z,79.58
2023-04-17T20:18:12.496Z,80.20
2023-04-17T20:20:39.354Z,80.11
2023-04-17T20:23:06.142Z,80.25
2023-04-17T20:25:32.976Z,79.71
2023-04-17T20:27:59.854Z,80.24
2023-04-17T20:30:26.491Z,80.85
2023-04-17T20:32:53.014Z,80.30
2023-04-17T20:35:23.503Z,80.31
2023-04-17T20:37:51.574Z,80.26
2023-04-17T20:40:18.997Z,79.93
2023-04-17T20:42:46.372Z,80.85
2023-04-17T20:45:13.328Z,80.54
2023-04-17T20:47:54.946Z,79.78
2023-04-17T20:50:23.255Z,80.29
2023-04-17T20:52:49.783Z,79.62
2023-04-17T20:55:18.613Z,78.71
2023-04-17T20:57:45.912Z,79.52
2023-04-17T21:00:12.916Z,78.39
2023-04-17T21:02:39.462Z,79.57
2023-04-17T21:05:07.605Z,80.00
2023-04-17T21:07:34.074Z,79.42
2023-04-17T21:10:00.534Z,79.31
2023-04-17T21:12:27.010Z,79.11
2023-04-17T21:14:53.506Z,79.62
2023-04-17T21:17:20.000Z,78.26
2023-04-17T21:19:47.202Z,77.86
2023-04-17T21:22:13.637Z,78.85
2023-04-17T21:24:40.166Z,78.86
2023-04-17T21:27:06.648Z,78.67
2023-04-17T21:29:33.035Z,78.53
2023-04-17T21:31:59.766Z,79.73
2023-04-17T21:34:26.308Z,79.64
2023-04-17T21:36:54.066Z,79.25
2023-04-17T21:39:21.350Z,79.60
2023-04-17T21:41:47.959Z,78.57
2023-04-17T21:44:15.137Z,79.97
2023-04-17T21:46:44.475Z,79.46
2023-04-17T21:49:10.887Z,79.81
2023-04-17T21:51:37.301Z,79.48
2023-04-17T21:54:04.175Z,79.94
2023-04-17T21:56:30.823Z,80.44
2023-04-17T21:58:57.207Z,79.92
2023-04-17T22:01:23.783Z,80.91
2023-04-17T22:03:50.546Z,80.75
2023-04-17T22:06:16.958Z,81.37
2023-04-17T22:08:43.465Z,81.11
2023-04-17T22:11:10.298Z,80.85
2023-04-17T22:13:36.689Z,80.98
2023-04-17T22:16:03.563Z,80.78
2023-04-17T22:18:30.072Z,79.53
2023-04-17T22:20:56.484Z,79.60
2023-04-17T22:23:22.958Z,79.28
2023-04-17T22:25:49.335Z,79.58
2023-04-17T22:28:15.724Z,79.44
2023-04-17T22:30:42.185Z,79.13
2023-04-17T22:33:08.613Z,78.73
2023-04-17T22:35:35.220Z,78.01
2023-04-17T22:38:01.634Z,77.50
2023-04-17T22:40:29.772Z,78.32
2023-04-17T22:42:56.212Z,77.83
2023-04-17T22:45:22.658Z,78.02
2023-04-17T22:47:49.104Z,78.02
2023-04-17T22:50:15.579Z,77.00
2023-04-17T22:52:41.968Z,76.98
2023-04-17T22:55:08.674Z,76.90
2023-04-17T22:57:35.556Z,77.10
2023-04-17T23:00:02.141Z,77.26
2023-04-17T23:02:28.686Z,77.41
2023-04-17T23:04:55.134Z,77.13
2023-04-17T23:07:21.580Z,76.98
2023-04-17T23:09:48.361Z,76.98
2023-04-17T23:12:14.849Z,76.58
2023-04-17T23:14:41.450Z,76.46
2023-04-17T23:17:07.907Z,76.17
2023-04-17T23:19:34.359Z,75.92
2023-04-17T23:22:01.134Z,76.18
2023-04-17T23:24:34.041Z,76.55
2023-04-17T23:27:01.619Z,76.80
2023-04-17T23:29:28.636Z,76.09
2023-04-17T23:31:55.116Z,76.31
2023-04-17T23:34:22.002Z,76.01
2023-04-17T23:36:48.457Z,76.23
2023-04-17T23:39:14.904Z,76.36
2023-04-17T23:41:42.139Z,76.08
2023-04-17T23:44:09.454Z,76.27
2023-04-17T23:46:36.401Z,76.71
2023-04-17T23:49:03.521Z,76.83
2023-04-17T23:51:30.342Z,76.57
2023-04-17T23:53:59.257Z,75.84
2023-04-17T23:56:25.965Z,76.77
2023-04-17T23:58:52.374Z,76.09
